Time;durP1;ratioP1;P1;durP2;ratioP2;P2;SDS_P1;SDS_P2;PMS_P1;PMS_P2;Temp;Humidity;BMP_temperature;BMP_pressure;BME280_temperature;BME280_humidity;BME280_pressure;Samples;Min_cycle;Max_cycle;Signal;HPM_P1;HPM_P2
2022/01/28 00:01:02;;;;;;;7.70;6.80;;;;;;;3.44;97.96;99308.22;5057410;28;20286;-69
2022/01/28 00:03:31;;;;;;;8.20;7.37;;;;;;;3.39;100.00;99316.53;5057538;28;20193;-69
2022/01/28 00:05:58;;;;;;;8.83;7.80;;;;;;;3.40;99.71;99305.06;5057345;28;20228;-69
2022/01/28 00:08:24;;;;;;;9.50;8.07;;;;;;;3.36;99.76;99297.59;5057312;28;20193;-69
2022/01/28 00:10:52;;;;;;;9.83;7.50;;;;;;;3.39;98.54;99306.00;5057201;28;20229;-69
2022/01/28 00:13:30;;;;;;;9.17;7.43;;;;;;;3.48;97.47;99307.78;5056982;28;20495;-69
2022/01/28 00:19:39;;;;;;;7.87;7.00;;;;;;;3.45;97.57;99317.75;5056782;28;20272;-69
2022/01/28 00:38:29;;;;;;;8.27;6.50;;;;;;;3.44;97.97;99335.31;5056586;28;20472;-69
2022/01/28 00:40:55;;;;;;;9.03;6.50;;;;;;;3.45;97.94;99329.13;5056692;28;20232;-69
2022/01/28 00:43:22;;;;;;;7.60;6.80;;;;;;;3.50;97.51;99334.75;5056578;28;20584;-71
2022/01/28 00:45:48;;;;;;;9.03;6.63;;;;;;;3.56;96.35;99330.72;5056876;28;20186;-71
2022/01/28 00:48:15;;;;;;;7.77;6.40;;;;;;;3.61;96.15;99339.03;5056852;28;20200;-69
2022/01/28 00:50:42;;;;;;;7.33;6.63;;;;;;;3.60;96.21;99335.56;5056598;28;20221;-70
2022/01/28 00:53:12;;;;;;;6.70;5.87;;;;;;;3.63;96.52;99337.06;5056567;28;20199;-69
2022/01/28 00:55:39;;;;;;;7.20;5.63;;;;;;;3.72;94.63;99326.50;5056542;28;20197;-69
2022/01/28 00:58:05;;;;;;;6.17;5.43;;;;;;;3.80;93.51;99321.34;5056549;28;20185;-69
2022/01/28 01:00:32;;;;;;;6.90;5.47;;;;;;;3.78;94.44;99330.34;5056310;28;20233;-69
2022/01/28 01:02:58;;;;;;;7.70;5.27;;;;;;;3.69;96.03;99328.59;5056385;28;20197;-69
2022/01/28 01:05:26;;;;;;;6.67;5.60;;;;;;;3.64;95.39;99320.31;5055936;28;20201;-69
2022/01/28 01:07:52;;;;;;;6.70;5.30;;;;;;;3.73;93.06;99316.81;5055858;28;20276;-69
2022/01/28 01:10:19;;;;;;;7.70;5.40;;;;;;;3.71;92.56;99326.66;5056274;28;20221;-69
2022/01/28 01:12:47;;;;;;;7.27;5.47;;;;;;;3.72;93.03;99323.88;5055986;28;20515;-69
2022/01/28 01:15:19;;;;;;;6.03;5.20;;;;;;;3.69;93.91;99336.47;5055903;28;20213;-69
2022/01/28 01:17:56;;;;;;;6.27;5.40;;;;;;;3.67;93.08;99333.97;5056225;28;20277;-69
2022/01/28 01:20:41;;;;;;;6.53;5.43;;;;;;;3.66;92.93;99336.78;5056045;28;20316;-69
2022/01/28 01:23:10;;;;;;;6.60;5.30;;;;;;;3.56;93.67;99333.34;5056135;28;20194;-69
2022/01/28 01:25:45;;;;;;;6.43;5.80;;;;;;;3.55;93.31;99337.78;5056156;28;20212;-69
2022/01/28 01:28:14;;;;;;;6.07;4.80;;;;;;;3.47;93.64;99335.03;5056144;28;20217;-69
2022/01/28 01:30:42;;;;;;;7.60;5.90;;;;;;;3.45;93.87;99336.16;5056020;28;20247;-69
2022/01/28 01:33:10;;;;;;;7.17;4.90;;;;;;;3.39;93.73;99331.47;5056111;28;20201;-69
2022/01/28 01:35:37;;;;;;;7.10;5.77;;;;;;;3.38;93.28;99332.44;5056137;28;20193;-69
2022/01/28 01:38:05;;;;;;;7.63;5.97;;;;;;;3.32;93.78;99333.00;5056048;28;20189;-69
2022/01/28 01:40:36;;;;;;;9.73;6.63;;;;;;;3.33;93.08;99321.53;5055887;28;20279;-69
2022/01/28 01:43:10;;;;;;;6.73;6.03;;;;;;;3.33;92.80;99332.03;5056019;28;20200;-69
2022/01/28 01:46:04;;;;;;;7.23;6.43;;;;;;;3.24;93.91;99335.50;5055921;28;20196;-69
2022/01/28 01:54:01;;;;;;;9.63;6.57;;;;;;;3.14;93.78;99339.97;5055617;28;20181;-69
2022/01/28 01:56:29;;;;;;;7.83;6.80;;;;;;;3.03;94.95;99340.13;5055865;28;20198;-69
2022/01/28 01:58:58;;;;;;;9.13;6.87;;;;;;;2.97;95.54;99351.19;5055566;28;20493;-69
2022/01/28 02:01:25;;;;;;;7.37;6.67;;;;;;;3.01;94.64;99363.91;5055689;28;20228;-69
2022/01/28 02:03:51;;;;;;;10.37;7.37;;;;;;;2.98;95.34;99364.19;5055824;28;20200;-69
2022/01/28 02:06:22;;;;;;;9.40;7.03;;;;;;;3.00;94.75;99377.19;5055840;28;20192;-69
2022/01/28 02:08:50;;;;;;;8.50;6.57;;;;;;;3.03;94.53;99379.53;5055830;28;20212;-69
2022/01/28 02:11:16;;;;;;;7.80;6.90;;;;;;;2.85;96.78;99376.75;5055762;28;20228;-69
2022/01/28 02:13:48;;;;;;;7.47;6.37;;;;;;;2.83;95.52;99396.25;5055647;28;20204;-69
2022/01/28 02:16:15;;;;;;;8.70;6.43;;;;;;;2.92;95.19;99395.41;5055450;28;20585;-69
2022/01/28 02:18:41;;;;;;;7.07;6.37;;;;;;;2.85;95.28;99396.97;5057388;28;20189;-69
2022/01/28 02:21:10;;;;;;;7.93;6.60;;;;;;;2.76;96.38;99398.59;5059006;28;20522;-69
2022/01/28 02:23:37;;;;;;;7.10;6.23;;;;;;;2.72;97.05;99401.66;5059196;28;20190;-69
2022/01/28 02:26:06;;;;;;;11.23;6.90;;;;;;;2.67;97.03;99404.66;5059017;28;20572;-69
2022/01/28 02:28:36;;;;;;;6.87;6.13;;;;;;;2.78;95.69;99401.09;5059295;28;20289;-69
2022/01/28 02:31:04;;;;;;;8.10;6.00;;;;;;;2.69;96.04;99400.13;5059145;28;20249;-69
2022/01/28 02:33:31;;;;;;;8.10;6.17;;;;;;;2.69;96.20;99407.16;5059166;28;20292;-69
2022/01/28 02:36:03;;;;;;;8.20;6.07;;;;;;;2.60;96.37;99397.47;5059116;28;20189;-69
2022/01/28 02:38:31;;;;;;;7.53;6.63;;;;;;;2.58;97.39;99404.69;5059146;28;20201;-69
2022/01/28 02:40:59;;;;;;;6.20;5.47;;;;;;;2.51;97.79;99403.53;5059311;28;20237;-67
2022/01/28 02:43:34;;;;;;;9.37;6.23;;;;;;;2.50;98.02;99404.53;5058634;28;20585;-67
2022/01/28 02:46:06;;;;;;;7.00;6.30;;;;;;;2.51;97.01;99411.41;5058956;28;20195;-67
2022/01/28 02:48:36;;;;;;;7.40;6.53;;;;;;;2.46;97.30;99406.59;5058905;28;20189;-67
2022/01/28 02:51:08;;;;;;;6.47;5.77;;;;;;;2.43;97.37;99403.41;5058480;28;20521;-67
2022/01/28 02:53:42;;;;;;;8.40;6.23;;;;;;;2.28;99.43;99396.88;5058806;28;20204;-67
2022/01/28 02:56:19;;;;;;;9.67;6.60;;;;;;;2.48;97.00;99403.84;5058485;28;20185;-67
2022/01/28 02:58:46;;;;;;;7.40;6.17;;;;;;;2.35;98.02;99408.50;5058674;28;20544;-67
2022/01/28 03:01:14;;;;;;;6.13;5.53;;;;;;;2.46;97.04;99400.50;5058497;28;20229;-67
2022/01/28 03:03:42;;;;;;;7.20;6.50;;;;;;;2.47;96.69;99407.41;5058526;28;20209;-67
2022/01/28 03:06:09;;;;;;;7.63;5.70;;;;;;;2.64;95.28;99422.50;5058568;28;20186;-67
2022/01/28 03:08:36;;;;;;;8.07;6.03;;;;;;;2.66;94.80;99410.09;5058188;28;20209;-67
2022/01/28 03:11:29;;;;;;;7.80;6.03;;;;;;;2.63;95.34;99405.09;5058001;28;20529;-67
2022/01/28 03:20:43;;;;;;;6.70;5.80;;;;;;;2.63;95.41;99416.44;5036096;28;20271;-67
2022/01/28 03:23:10;;;;;;;7.47;5.60;;;;;;;2.87;92.50;99432.63;5054021;28;20209;-67
2022/01/28 03:25:42;;;;;;;6.37;5.50;;;;;;;2.92;91.47;99426.94;5058191;28;20217;-67
2022/01/28 03:28:09;;;;;;;7.30;4.77;;;;;;;2.94;91.31;99427.66;5058190;28;20213;-67
2022/01/28 03:30:35;;;;;;;6.73;4.93;;;;;;;3.01;90.67;99428.75;5057784;28;20235;-69
2022/01/28 03:33:02;;;;;;;5.93;5.23;;;;;;;2.99;91.28;99422.81;5058066;28;20198;-69
2022/01/28 03:35:29;;;;;;;7.63;5.50;;;;;;;3.06;90.78;99424.75;5057816;28;20244;-69
2022/01/28 03:38:00;;;;;;;6.97;4.90;;;;;;;3.07;90.66;99438.72;5057881;28;20186;-70
2022/01/28 03:40:27;;;;;;;5.87;4.83;;;;;;;3.06;91.76;99437.03;5057769;28;20228;-69
2022/01/28 03:42:54;;;;;;;6.30;5.30;;;;;;;3.09;91.69;99439.41;5057701;28;20196;-70
2022/01/28 03:45:20;;;;;;;8.40;5.60;;;;;;;3.01;93.14;99434.00;5057776;28;20186;-70
2022/01/28 03:47:47;;;;;;;7.33;6.07;;;;;;;3.15;90.90;99433.59;5057747;28;20202;-69
2022/01/28 03:50:13;;;;;;;6.90;5.50;;;;;;;3.16;91.40;99435.25;5057674;28;20265;-69
2022/01/28 03:52:39;;;;;;;7.00;5.80;;;;;;;3.15;91.75;99437.03;5057647;28;20190;-70
2022/01/28 03:55:06;;;;;;;7.47;5.60;;;;;;;3.21;91.00;99441.75;5057584;28;20193;-69
2022/01/28 03:57:33;;;;;;;7.33;5.93;;;;;;;3.19;92.04;99448.94;5057663;28;20247;-69
2022/01/28 03:59:59;;;;;;;8.87;6.07;;;;;;;3.20;91.46;99455.03;5057606;28;20227;-70
2022/01/28 04:02:29;;;;;;;8.60;5.60;;;;;;;3.15;93.04;99462.47;5057493;28;20209;-70
2022/01/28 04:05:50;;;;;;;7.93;5.93;;;;;;;3.16;92.14;99464.97;5057443;28;20190;-69
2022/01/28 04:13:24;;;;;;;8.13;5.30;;;;;;;3.01;92.25;99470.78;5057127;28;20479;-70
2022/01/28 04:16:04;;;;;;;6.73;6.03;;;;;;;3.04;91.94;99470.50;5056583;28;20308;-70
2022/01/28 04:18:31;;;;;;;9.57;6.30;;;;;;;3.02;91.65;99465.38;5056752;28;20534;-69
2022/01/28 04:20:57;;;;;;;10.43;6.07;;;;;;;2.94;92.21;99472.31;5056579;28;20229;-69
2022/01/28 04:23:23;;;;;;;7.50;6.03;;;;;;;2.83;93.07;99472.41;5057166;28;20194;-70
2022/01/28 04:25:50;;;;;;;7.57;6.27;;;;;;;2.90;91.80;99473.53;5057197;28;20190;-69
2022/01/28 04:28:16;;;;;;;8.03;6.47;;;;;;;2.90;92.09;99478.78;5057103;28;20190;-70
2022/01/28 04:30:43;;;;;;;8.73;6.00;;;;;;;2.88;92.27;99481.56;5056924;28;20529;-69
2022/01/28 04:33:09;;;;;;;7.97;6.00;;;;;;;2.81;93.22;99485.72;5056927;28;20189;-69
2022/01/28 04:35:35;;;;;;;7.10;6.13;;;;;;;2.81;92.53;99479.63;5056668;28;20190;-69
2022/01/28 04:38:14;;;;;;;11.63;7.00;;;;;;;2.85;92.47;99496.75;5056455;28;20225;-70
2022/01/28 04:40:52;;;;;;;7.80;6.50;;;;;;;2.76;93.37;99506.25;5055658;28;20221;-69
2022/01/28 04:43:24;;;;;;;8.97;6.10;;;;;;;2.77;92.85;99505.31;5056285;28;20193;-69
2022/01/28 04:45:57;;;;;;;8.50;6.50;;;;;;;2.81;92.69;99514.59;5056362;28;20234;-69
2022/01/28 04:48:29;;;;;;;8.53;6.97;;;;;;;2.80;92.82;99531.28;5056456;28;20198;-69
2022/01/28 04:51:10;;;;;;;9.87;7.40;;;;;;;2.83;92.01;99530.19;5056449;28;20221;-70
2022/01/28 04:53:48;;;;;;;9.57;7.27;;;;;;;2.70;93.77;99530.44;5056309;28;20255;-69
2022/01/28 04:56:26;;;;;;;10.03;6.63;;;;;;;2.63;94.47;99539.00;5056302;28;20495;-69
2022/01/28 04:59:09;;;;;;;7.10;6.13;;;;;;;2.59;94.25;99535.81;5056268;28;20213;-69
2022/01/28 05:02:09;;;;;;;8.10;6.90;;;;;;;2.55;94.56;99541.44;5055978;28;20225;-69
2022/01/28 05:04:53;;;;;;;8.83;6.90;;;;;;;2.42;95.32;99546.09;5055650;28;20306;-69
2022/01/28 05:13:38;;;;;;;10.07;7.07;;;;;;;2.50;94.92;99544.47;5031770;28;20196;-69
2022/01/28 05:27:18;;;;;;;9.87;7.80;;;;;;;2.43;95.35;99534.66;5031458;28;20494;-69
2022/01/28 05:29:45;;;;;;;10.43;7.53;;;;;;;2.40;95.45;99542.78;5056036;28;20197;-69
2022/01/28 05:32:12;;;;;;;11.57;7.67;;;;;;;2.41;95.87;99541.81;5055768;28;20213;-70
2022/01/28 05:34:39;;;;;;;9.73;7.53;;;;;;;2.45;95.16;99551.09;5055801;28;20224;-69
2022/01/28 05:37:07;;;;;;;8.90;6.97;;;;;;;2.39;95.78;99549.00;5055856;28;20201;-70
2022/01/28 05:39:34;;;;;;;12.77;8.03;;;;;;;2.39;95.34;99546.38;5055803;28;20204;-70
2022/01/28 05:42:01;;;;;;;11.10;8.50;;;;;;;2.36;95.61;99534.34;5055647;28;20236;-69
2022/01/28 05:44:27;;;;;;;9.33;7.03;;;;;;;2.38;95.81;99549.94;5055405;28;20256;-69
2022/01/28 05:46:56;;;;;;;10.70;8.20;;;;;;;2.36;95.45;99557.97;5055662;28;20189;-69
2022/01/28 05:49:23;;;;;;;13.97;8.50;;;;;;;2.39;95.55;99562.13;5055831;28;20202;-69
2022/01/28 05:51:49;;;;;;;13.70;8.40;;;;;;;2.34;95.92;99559.06;5056089;28;20512;-70
2022/01/28 05:54:16;;;;;;;12.07;9.10;;;;;;;2.29;95.86;99551.56;5060079;28;20190;-70
2022/01/28 05:56:42;;;;;;;11.63;8.10;;;;;;;2.32;95.73;99555.72;5059587;28;20201;-69
2022/01/28 05:59:09;;;;;;;9.50;8.10;;;;;;;2.35;95.68;99560.72;5059559;28;20208;-69
2022/01/28 06:01:35;;;;;;;9.67;7.60;;;;;;;2.34;95.36;99573.00;5059068;28;20233;-69
2022/01/28 06:04:01;;;;;;;9.83;8.10;;;;;;;2.29;96.02;99569.09;5059204;28;20203;-70
2022/01/28 06:06:28;;;;;;;11.43;8.30;;;;;;;2.28;96.24;99585.78;5059307;28;20189;-69
2022/01/28 06:08:56;;;;;;;9.43;7.57;;;;;;;2.26;95.91;99590.34;5059223;28;20251;-69
2022/01/28 06:11:24;;;;;;;11.40;8.23;;;;;;;2.23;96.39;99587.97;5058862;28;20220;-69
2022/01/28 06:13:51;;;;;;;11.27;8.27;;;;;;;2.20;96.16;99594.31;5058445;28;20197;-69
2022/01/28 06:16:20;;;;;;;10.87;8.00;;;;;;;2.20;96.45;99594.31;5058290;28;20205;-69
2022/01/28 06:18:47;;;;;;;13.77;8.50;;;;;;;2.23;95.88;99593.22;5058561;28;20190;-69
2022/01/28 06:21:13;;;;;;;10.37;8.00;;;;;;;2.34;95.21;99601.03;5058498;28;20237;-70
2022/01/28 06:23:39;;;;;;;11.80;8.30;;;;;;;2.30;95.21;99612.75;5058726;28;20208;-69
2022/01/28 06:26:06;;;;;;;9.93;7.63;;;;;;;2.19;95.66;99615.44;5058709;28;20189;-69
2022/01/28 06:28:33;;;;;;;11.67;8.60;;;;;;;2.11;97.23;99623.09;5058726;28;20394;-69
2022/01/28 06:30:59;;;;;;;15.50;8.93;;;;;;;2.28;94.96;99631.25;5058883;28;20287;-70
2022/01/28 06:33:25;;;;;;;13.33;8.40;;;;;;;2.26;95.24;99638.41;5058326;28;20234;-69
2022/01/28 06:35:52;;;;;;;9.03;7.63;;;;;;;2.44;94.62;99649.97;5058390;28;20607;-69
2022/01/28 06:38:19;;;;;;;13.83;8.20;;;;;;;2.41;94.87;99657.28;5058760;28;20187;-69
2022/01/28 06:40:45;;;;;;;13.07;7.83;;;;;;;2.44;94.39;99680.66;5058722;28;20221;-69
2022/01/28 06:43:13;;;;;;;11.07;8.33;;;;;;;2.47;93.90;99670.72;5057783;28;20217;-69
2022/01/28 06:45:42;;;;;;;11.93;8.07;;;;;;;2.43;94.65;99664.06;5057101;28;20197;-69
2022/01/28 06:48:10;;;;;;;12.80;8.63;;;;;;;2.35;94.82;99673.56;5058252;28;20580;-69
2022/01/28 06:50:42;;;;;;;13.00;8.83;;;;;;;2.27;95.67;99683.84;5058133;28;20713;-69
2022/01/28 06:53:09;;;;;;;11.53;8.53;;;;;;;2.20;95.92;99678.28;5058023;28;20592;-69
2022/01/28 06:55:36;;;;;;;11.63;8.33;;;;;;;2.22;95.87;99673.72;5058269;28;20335;-69
2022/01/28 06:58:07;;;;;;;14.87;8.33;;;;;;;2.22;95.62;99675.53;5058402;28;20200;-70
2022/01/28 07:00:37;;;;;;;11.73;8.27;;;;;;;2.21;95.68;99679.13;5058083;28;20236;-70
2022/01/28 07:03:07;;;;;;;10.63;8.37;;;;;;;2.17;96.05;99680.34;5057706;28;20612;-69
2022/01/28 07:05:34;;;;;;;11.90;8.40;;;;;;;2.10;96.14;99674.75;5057518;28;20505;-70
2022/01/28 07:08:01;;;;;;;12.77;8.70;;;;;;;2.14;96.30;99678.81;5058028;28;20186;-69
2022/01/28 07:10:28;;;;;;;13.57;9.00;;;;;;;2.18;96.04;99688.09;5057809;28;20226;-69
2022/01/28 07:12:55;;;;;;;12.67;8.50;;;;;;;2.26;95.32;99677.75;5058099;28;20193;-69
2022/01/28 07:15:24;;;;;;;14.30;8.77;;;;;;;2.20;95.94;99667.78;5057342;28;20532;-69
2022/01/28 07:17:55;;;;;;;15.63;8.90;;;;;;;2.20;95.54;99673.03;5057919;28;20340;-70
2022/01/28 07:20:22;;;;;;;13.50;9.23;;;;;;;2.23;95.67;99671.94;5057961;28;20225;-69
2022/01/28 07:22:49;;;;;;;14.87;9.23;;;;;;;2.27;95.03;99668.09;5057655;28;20213;-70
2022/01/28 07:25:16;;;;;;;13.63;8.73;;;;;;;2.31;95.01;99687.88;5057730;28;20530;-69
2022/01/28 07:27:42;;;;;;;12.07;8.17;;;;;;;2.25;95.28;99676.09;5057900;28;20190;-68
2022/01/28 07:30:10;;;;;;;12.80;8.90;;;;;;;2.26;95.50;99676.94;5057263;28;20190;-67
2022/01/28 07:32:36;;;;;;;12.13;8.30;;;;;;;2.32;94.86;99677.28;5057372;28;20577;-67
2022/01/28 07:35:04;;;;;;;10.77;8.23;;;;;;;2.40;94.70;99693.19;5057323;28;20189;-67
2022/01/28 07:37:30;;;;;;;13.60;8.93;;;;;;;2.52;93.80;99691.34;5057388;28;20200;-69
2022/01/28 07:39:57;;;;;;;10.40;7.90;;;;;;;2.57;93.41;99702.31;5057039;28;20194;-69
2022/01/28 07:42:25;;;;;;;12.60;8.57;;;;;;;2.59;93.90;99703.00;5057205;28;20309;-69
2022/01/28 07:44:51;;;;;;;11.33;8.10;;;;;;;2.65;93.45;99708.56;5057221;28;20198;-69
2022/01/28 07:47:18;;;;;;;10.13;8.00;;;;;;;2.74;93.31;99704.31;5057163;28;20201;-69
2022/01/28 07:49:44;;;;;;;11.47;8.00;;;;;;;2.76;93.09;99716.34;5057337;28;20197;-69
2022/01/28 07:52:10;;;;;;;11.77;8.10;;;;;;;2.82;92.59;99712.38;5057296;28;20304;-69
2022/01/28 07:54:39;;;;;;;10.73;7.50;;;;;;;2.91;91.65;99711.59;5057262;28;20194;-70
2022/01/28 07:57:05;;;;;;;13.77;6.93;;;;;;;2.98;90.70;99712.75;5057226;28;20189;-70
2022/01/28 07:59:31;;;;;;;9.37;6.87;;;;;;;2.99;90.24;99707.34;5058172;28;20489;-69
2022/01/28 08:01:58;;;;;;;11.17;6.83;;;;;;;3.05;90.23;99721.75;5057295;28;20236;-69
2022/01/28 08:04:24;;;;;;;10.73;6.60;;;;;;;3.11;89.27;99731.78;5057039;28;20198;-70
2022/01/28 08:06:50;;;;;;;8.50;6.17;;;;;;;3.18;88.32;99739.00;5057454;28;20194;-69
2022/01/28 08:09:17;;;;;;;7.73;5.13;;;;;;;3.26;87.37;99728.63;5058086;28;20193;-70
2022/01/28 08:11:43;;;;;;;8.50;6.43;;;;;;;3.22;87.50;99735.13;5057067;28;20595;-69
2022/01/28 08:14:10;;;;;;;10.37;5.90;;;;;;;3.25;88.14;99728.78;5056870;28;20527;-69
2022/01/28 08:16:36;;;;;;;9.53;5.70;;;;;;;3.23;88.14;99725.44;5055819;28;20618;-70
2022/01/28 08:19:02;;;;;;;11.07;5.60;;;;;;;3.22;87.10;99743.03;5057014;28;20216;-69
2022/01/28 08:21:29;;;;;;;9.83;6.00;;;;;;;3.21;87.81;99751.03;5056344;28;20508;-69
2022/01/28 08:23:55;;;;;;;10.50;6.27;;;;;;;3.31;86.15;99757.16;5056595;28;20228;-69
2022/01/28 08:26:22;;;;;;;9.20;5.67;;;;;;;3.39;85.90;99752.06;5056631;28;20190;-69
2022/01/28 08:28:48;;;;;;;10.43;5.70;;;;;;;3.40;85.65;99753.72;5057409;28;20189;-69
2022/01/28 08:31:15;;;;;;;7.53;5.50;;;;;;;3.40;85.52;99761.63;5056609;28;20225;-69
2022/01/28 08:33:42;;;;;;;6.97;5.30;;;;;;;3.45;85.25;99759.44;5056327;28;20189;-69
2022/01/28 08:36:09;;;;;;;9.07;5.63;;;;;;;3.46;86.19;99763.72;5056716;28;20503;-69
2022/01/28 08:38:38;;;;;;;9.67;5.67;;;;;;;3.52;85.15;99760.56;5056774;28;20284;-71
2022/01/28 08:41:05;;;;;;;7.30;5.60;;;;;;;3.64;85.34;99770.00;5057234;28;20221;-71
2022/01/28 08:43:32;;;;;;;8.87;5.00;;;;;;;3.71;84.10;99776.41;5056583;28;20209;-71
2022/01/28 08:45:59;;;;;;;7.73;4.47;;;;;;;3.70;83.30;99782.63;5056427;28;20185;-71
2022/01/28 08:48:26;;;;;;;7.07;5.07;;;;;;;3.70;83.47;99785.28;5056288;28;20608;-71
2022/01/28 08:50:53;;;;;;;8.60;4.83;;;;;;;3.76;84.14;99787.34;5056117;28;20225;-69
2022/01/28 08:53:19;;;;;;;11.27;4.93;;;;;;;3.76;82.10;99787.34;5056310;28;20211;-69
2022/01/28 08:55:45;;;;;;;7.80;4.67;;;;;;;3.79;82.21;99787.09;5056057;28;20569;-69
2022/01/28 08:58:13;;;;;;;6.80;4.63;;;;;;;3.89;81.60;99791.38;5057228;28;20190;-69
2022/01/28 09:00:42;;;;;;;8.67;4.30;;;;;;;3.86;82.32;99790.84;5056516;28;20283;-69
2022/01/28 09:03:09;;;;;;;7.63;4.90;;;;;;;3.83;82.53;99786.69;5056407;28;20513;-69
2022/01/28 09:05:35;;;;;;;5.67;4.43;;;;;;;3.92;82.22;99787.66;5056546;28;20193;-69
2022/01/28 09:08:06;;;;;;;6.87;4.37;;;;;;;3.94;81.78;99783.91;5056469;28;20189;-69
2022/01/28 09:10:33;;;;;;;9.17;4.53;;;;;;;3.97;81.42;99781.03;5056356;28;20618;-69
2022/01/28 09:13:22;;;;;;;7.40;4.53;;;;;;;4.06;81.87;99790.75;5056330;28;20190;-69
2022/01/28 09:15:48;;;;;;;4.93;3.80;;;;;;;4.15;81.03;99792.56;5055757;28;20575;-69
2022/01/28 09:18:15;;;;;;;5.47;3.93;;;;;;;4.10;80.31;99786.03;5056233;28;20507;-69
2022/01/28 09:20:41;;;;;;;6.27;4.17;;;;;;;4.19;81.73;99785.22;5055707;28;20224;-69
2022/01/28 09:23:08;;;;;;;6.43;4.70;;;;;;;4.23;81.30;99782.19;5056178;28;20209;-69
2022/01/28 09:25:35;;;;;;;7.27;4.57;;;;;;;4.22;80.48;99780.53;5056282;28;20200;-69
2022/01/28 09:28:02;;;;;;;9.07;4.67;;;;;;;4.31;81.25;99784.13;5055941;28;20190;-69
2022/01/28 09:30:29;;;;;;;7.37;5.00;;;;;;;4.36;80.68;99785.38;5055991;28;20225;-69
2022/01/28 09:32:56;;;;;;;8.70;4.73;;;;;;;4.45;78.43;99786.34;5056253;28;20194;-69
2022/01/28 09:35:23;;;;;;;10.20;4.27;;;;;;;4.56;77.97;99787.03;5055739;28;20645;-69
2022/01/28 09:37:51;;;;;;;8.80;4.07;;;;;;;4.76;76.49;99787.88;5055754;28;20190;-71
2022/01/28 09:40:18;;;;;;;8.00;3.53;;;;;;;4.84;77.41;99801.97;5055987;28;20228;-70
2022/01/28 09:42:46;;;;;;;7.97;3.50;;;;;;;4.82;77.43;99795.19;5055957;28;20209;-71
2022/01/28 09:45:16;;;;;;;7.40;3.47;;;;;;;4.88;76.56;99795.47;5055725;28;20280;-71
2022/01/28 09:47:46;;;;;;;6.77;2.80;;;;;;;4.88;76.16;99792.03;5056037;28;20197;-71
2022/01/28 09:50:12;;;;;;;9.10;3.47;;;;;;;4.86;75.92;99786.03;5055928;28;20236;-71
2022/01/28 09:52:39;;;;;;;7.13;3.07;;;;;;;4.91;74.55;99799.63;5055989;28;20225;-70
2022/01/28 09:55:06;;;;;;;5.70;3.53;;;;;;;4.89;77.23;99798.94;5055640;28;20255;-71
2022/01/28 09:57:32;;;;;;;4.77;2.67;;;;;;;4.99;73.66;99799.75;5055338;28;20202;-71
2022/01/28 09:59:59;;;;;;;5.77;2.63;;;;;;;5.16;73.23;99806.94;5055854;28;20301;-71
2022/01/28 10:02:51;;;;;;;6.93;2.87;;;;;;;5.10;73.36;99807.50;5055712;28;20217;-71
2022/01/28 10:05:30;;;;;;;9.07;2.93;;;;;;;5.27;74.06;99810.25;5055843;28;20196;-71
2022/01/28 10:08:08;;;;;;;7.27;2.43;;;;;;;5.14;71.94;99814.16;5055825;28;20207;-70
2022/01/28 10:10:46;;;;;;;7.23;2.23;;;;;;;5.14;73.34;99814.16;5055637;28;20232;-71
2022/01/28 10:13:25;;;;;;;8.30;2.40;;;;;;;5.10;72.89;99823.31;5055813;28;20196;-71
2022/01/28 10:16:01;;;;;;;7.03;2.27;;;;;;;5.18;73.58;99823.44;5055424;28;20248;-71
2022/01/28 10:18:38;;;;;;;6.60;2.50;;;;;;;5.25;72.01;99809.53;5055398;28;20224;-71
2022/01/28 10:21:16;;;;;;;5.93;2.27;;;;;;;5.23;71.56;99800.09;5055577;28;20236;-71
2022/01/28 10:23:43;;;;;;;8.33;2.57;;;;;;;5.23;72.06;99800.09;5055153;28;20609;-71
2022/01/28 10:26:09;;;;;;;5.40;2.40;;;;;;;5.18;70.32;99799.72;5055736;28;20197;-71
2022/01/28 10:28:36;;;;;;;6.60;2.50;;;;;;;5.20;71.20;99798.59;5055671;28;20197;-71
2022/01/28 10:31:05;;;;;;;7.70;2.70;;;;;;;5.15;71.50;99795.56;5055493;28;20244;-71
2022/01/28 10:33:31;;;;;;;8.53;2.67;;;;;;;5.10;72.29;99796.94;5055560;28;20197;-71
2022/01/28 10:36:02;;;;;;;4.43;2.27;;;;;;;5.00;72.40;99790.88;5055504;28;20224;-71
2022/01/28 10:38:37;;;;;;;6.70;2.50;;;;;;;4.95;72.49;99796.56;5055519;28;20284;-72
2022/01/28 10:41:10;;;;;;;6.00;2.40;;;;;;;5.15;72.36;99794.75;5058875;28;20217;-71
2022/01/28 10:43:48;;;;;;;6.33;2.20;;;;;;;5.29;71.38;99794.28;5058168;28;20576;-72
2022/01/28 10:46:30;;;;;;;5.07;2.20;;;;;;;5.35;71.47;99785.78;5058331;28;20193;-71
2022/01/28 10:48:59;;;;;;;8.00;2.47;;;;;;;5.44;70.40;99775.22;5059727;28;20244;-71
2022/01/28 10:51:49;;;;;;;7.63;2.20;;;;;;;5.38;70.58;99781.03;5058911;28;20232;-71
2022/01/28 10:54:20;;;;;;;9.33;2.03;;;;;;;5.33;69.32;99785.13;5058585;28;20186;-71
2022/01/28 10:56:56;;;;;;;5.47;1.90;;;;;;;5.42;70.28;99797.44;5058260;28;20655;-71
2022/01/28 10:59:26;;;;;;;5.87;1.93;;;;;;;5.52;68.90;99792.94;5058968;28;20194;-71
2022/01/28 11:01:53;;;;;;;7.30;2.37;;;;;;;5.63;68.35;99790.13;5058426;28;20243;-71
2022/01/28 11:04:21;;;;;;;10.70;2.07;;;;;;;5.64;67.59;99795.25;5058532;28;20209;-71
2022/01/28 11:06:50;;;;;;;8.20;2.33;;;;;;;5.67;70.54;99794.13;5058644;28;20201;-71
2022/01/28 11:09:19;;;;;;;7.53;2.17;;;;;;;5.60;67.53;99806.22;5058421;28;20193;-71
2022/01/28 11:11:47;;;;;;;5.87;1.90;;;;;;;5.80;66.78;99802.53;5057903;28;20308;-71
2022/01/28 11:14:13;;;;;;;6.67;1.77;;;;;;;5.86;67.93;99807.25;5058063;28;20201;-71
2022/01/28 11:16:40;;;;;;;5.37;1.87;;;;;;;5.96;66.91;99805.38;5058445;28;20205;-71
2022/01/28 11:19:11;;;;;;;6.67;2.00;;;;;;;5.71;66.44;99808.69;5058428;28;20189;-71
2022/01/28 11:21:55;;;;;;;5.07;2.30;;;;;;;5.64;66.54;99813.72;5058240;28;20225;-70
2022/01/28 11:24:46;;;;;;;4.63;2.00;;;;;;;5.98;67.25;99806.91;5058221;28;20216;-71
2022/01/28 11:27:34;;;;;;;4.60;2.30;;;;;;;6.18;67.38;99810.25;5058291;28;20209;-71
2022/01/28 11:30:22;;;;;;;5.97;2.27;;;;;;;6.19;65.85;99819.88;5058704;28;20193;-71
2022/01/28 11:32:54;;;;;;;4.40;2.10;;;;;;;6.32;66.14;99807.09;5057723;28;20208;-71
2022/01/28 11:35:22;;;;;;;5.77;2.20;;;;;;;6.19;65.67;99801.38;5058007;28;20196;-71
2022/01/28 11:37:48;;;;;;;8.67;2.23;;;;;;;6.09;65.83;99811.16;5057629;28;20616;-71
2022/01/28 11:40:16;;;;;;;7.67;2.30;;;;;;;6.13;65.69;99809.88;5057778;28;20205;-71
2022/01/28 11:42:43;;;;;;;3.57;1.97;;;;;;;6.09;66.03;99798.78;5057551;28;20498;-70
2022/01/28 11:45:11;;;;;;;5.17;2.27;;;;;;;6.13;65.35;99799.31;5057384;28;20189;-71
2022/01/28 11:47:40;;;;;;;3.00;2.07;;;;;;;5.98;66.31;99796.34;5057768;28;20205;-71
2022/01/28 11:50:15;;;;;;;6.10;2.67;;;;;;;6.13;66.87;99804.59;5057118;28;20190;-71
2022/01/28 11:53:03;;;;;;;5.03;2.20;;;;;;;6.00;67.47;99798.84;5057018;28;20200;-71
2022/01/28 11:55:32;;;;;;;6.67;2.60;;;;;;;5.84;67.19;99794.19;5057208;28;20559;-71
2022/01/28 11:57:58;;;;;;;4.90;2.23;;;;;;;5.67;67.36;99788.84;5057389;28;20251;-71
2022/01/28 12:00:28;;;;;;;3.47;1.77;;;;;;;5.48;66.06;99799.50;5057598;28;20225;-70
2022/01/28 12:02:55;;;;;;;5.47;1.80;;;;;;;5.53;67.39;99784.06;5057832;28;20197;-71
2022/01/28 12:05:31;;;;;;;7.13;2.20;;;;;;;5.69;67.63;99795.63;5057256;28;20193;-71
2022/01/28 12:08:04;;;;;;;7.03;2.10;;;;;;;5.80;67.38;99802.53;5056966;28;20185;-71
2022/01/28 12:10:33;;;;;;;6.90;2.47;;;;;;;6.05;67.88;99805.34;5056787;28;20221;-71
2022/01/28 12:13:01;;;;;;;5.57;2.30;;;;;;;6.19;66.85;99809.31;5056797;28;20260;-71
2022/01/28 12:15:32;;;;;;;8.53;2.43;;;;;;;6.11;65.38;99798.66;5056407;28;20643;-71
2022/01/28 12:18:19;;;;;;;5.87;2.23;;;;;;;6.13;66.50;99799.31;5056761;28;20201;-71
2022/01/28 12:20:48;;;;;;;11.27;2.57;;;;;;;6.04;66.04;99808.13;5056567;28;20232;-71
2022/01/28 12:23:14;;;;;;;9.53;3.00;;;;;;;5.97;66.38;99799.16;5057125;28;20300;-71
2022/01/28 12:25:40;;;;;;;5.47;2.67;;;;;;;6.05;66.26;99791.31;5056159;28;20208;-71
2022/01/28 12:28:43;;;;;;;6.87;2.63;;;;;;;6.11;66.39;99796.00;5056262;28;20608;-70
2022/01/28 12:31:27;;;;;;;8.47;3.03;;;;;;;6.40;66.30;99791.34;5044443;28;20659;-71
2022/01/28 12:33:56;;;;;;;5.53;2.77;;;;;;;6.21;66.80;99779.13;5056224;28;20464;-71
2022/01/28 12:36:30;;;;;;;3.80;2.30;;;;;;;6.29;65.58;99788.94;5057214;28;20185;-71
2022/01/28 12:39:13;;;;;;;5.30;2.73;;;;;;;5.94;66.10;99773.88;5056279;28;20193;-70
2022/01/28 12:41:55;;;;;;;10.43;3.37;;;;;;;6.23;67.50;99773.66;5055998;28;20682;-70
2022/01/28 12:44:21;;;;;;;6.83;2.80;;;;;;;6.23;66.01;99771.88;5056194;28;20236;-70
2022/01/28 12:46:57;;;;;;;6.50;3.27;;;;;;;6.25;67.67;99767.25;5056407;28;20189;-71